createdAt,value
2018-05-27T00:02:24.595Z,1.90
2018-05-27T00:04:52.090Z,1.97
2018-05-27T00:07:19.592Z,1.60
2018-05-27T00:09:47.864Z,2.10
2018-05-27T00:12:15.352Z,1.97
2018-05-27T00:14:43.606Z,2.10
2018-05-27T00:17:11.120Z,2.07
2018-05-27T00:19:38.619Z,1.70
2018-05-27T00:22:06.102Z,1.83
2018-05-27T00:24:34.369Z,1.40
2018-05-27T00:27:01.861Z,1.63
2018-05-27T00:29:29.335Z,1.50
2018-05-27T00:31:56.839Z,1.40
2018-05-27T00:34:24.321Z,1.50
2018-05-27T00:36:51.802Z,1.40
2018-05-27T00:39:19.301Z,1.37
2018-05-27T00:41:46.804Z,1.57
2018-05-27T00:44:14.301Z,1.77
2018-05-27T00:46:41.843Z,1.40
2018-05-27T00:49:09.320Z,1.37
2018-05-27T00:51:37.563Z,1.47
2018-05-27T00:54:05.069Z,1.30
2018-05-27T00:56:33.321Z,1.10
2018-05-27T00:59:00.807Z,1.50
2018-05-27T01:01:29.069Z,1.13
2018-05-27T01:03:58.157Z,1.77
2018-05-27T01:06:25.771Z,1.43
2018-05-27T01:08:53.352Z,1.13
2018-05-27T01:11:20.861Z,1.37
2018-05-27T01:13:49.372Z,1.27
2018-05-27T01:16:17.621Z,1.37
2018-05-27T01:18:45.133Z,1.30
2018-05-27T01:21:12.619Z,1.70
2018-05-27T01:23:40.143Z,1.70
2018-05-27T01:26:08.419Z,1.40
2018-05-27T01:28:36.693Z,1.50
2018-05-27T01:31:04.967Z,1.90
2018-05-27T01:33:32.461Z,1.77
2018-05-27T01:35:59.952Z,1.60
2018-05-27T01:38:27.478Z,1.70
2018-05-27T01:40:55.728Z,1.60
2018-05-27T01:43:23.210Z,1.70
2018-05-27T01:45:51.494Z,1.37
2018-05-27T01:48:19.784Z,1.67
2018-05-27T01:50:47.282Z,1.53
2018-05-27T01:53:14.788Z,1.17
2018-05-27T01:55:42.276Z,1.30
2018-05-27T01:58:10.531Z,1.13
2018-05-27T02:00:38.014Z,1.30
2018-05-27T02:03:06.257Z,1.30
2018-05-27T02:05:33.760Z,1.27
2018-05-27T02:08:02.016Z,1.47
2018-05-27T02:10:29.505Z,1.40
2018-05-27T02:12:56.988Z,1.40
2018-05-27T02:15:24.479Z,1.90
2018-05-27T02:17:51.955Z,1.90
2018-05-27T02:20:19.441Z,1.77
2018-05-27T02:22:47.705Z,1.73
2018-05-27T02:25:15.190Z,1.97
2018-05-27T02:27:43.443Z,1.87
2018-05-27T02:30:10.956Z,1.73
2018-05-27T02:32:38.446Z,1.77
2018-05-27T02:35:05.979Z,1.80
2018-05-27T02:37:33.470Z,1.73
2018-05-27T02:40:00.967Z,1.70
2018-05-27T02:42:28.470Z,1.90
2018-05-27T02:44:55.956Z,1.60
2018-05-27T02:47:23.441Z,1.60
2018-05-27T02:49:50.946Z,1.50
2018-05-27T02:52:19.190Z,1.63
2018-05-27T02:54:46.668Z,1.50
2018-05-27T02:57:14.950Z,1.80
2018-05-27T02:59:42.434Z,1.60
2018-05-27T03:02:10.680Z,1.47
2018-05-27T03:04:38.181Z,1.67
2018-05-27T03:07:05.669Z,1.53
2018-05-27T03:09:33.175Z,1.30
2018-05-27T03:12:00.673Z,1.83
2018-05-27T03:14:28.167Z,1.30
2018-05-27T03:16:55.652Z,1.40
2018-05-27T03:19:23.153Z,1.57
2018-05-27T03:21:51.442Z,1.47
2018-05-27T03:24:18.926Z,1.63
2018-05-27T03:26:46.416Z,1.73
2018-05-27T03:29:13.916Z,1.70
2018-05-27T03:31:42.154Z,1.50
2018-05-27T03:34:09.644Z,1.77
2018-05-27T03:36:37.137Z,1.10
2018-05-27T03:39:04.624Z,1.33
2018-05-27T03:41:32.141Z,1.40
2018-05-27T03:43:59.665Z,1.80
2018-05-27T03:46:27.146Z,1.70
2018-05-27T03:48:54.646Z,1.77
2018-05-27T03:51:22.894Z,1.80
2018-05-27T03:53:50.409Z,1.70
2018-05-27T03:56:17.889Z,1.50
2018-05-27T03:58:47.027Z,1.30
2018-05-27T04:01:14.525Z,1.20
2018-05-27T04:03:42.007Z,2.20
2018-05-27T04:06:21.371Z,1.43
2018-05-27T04:08:48.845Z,1.40
2018-05-27T04:11:16.335Z,1.33
2018-05-27T04:13:44.605Z,1.63
2018-05-27T04:16:12.893Z,1.77
2018-05-27T04:18:41.161Z,1.20
2018-05-27T04:21:09.418Z,1.80
2018-05-27T04:23:37.680Z,1.63
2018-05-27T04:26:05.166Z,1.77
2018-05-27T04:28:32.703Z,1.50
2018-05-27T04:31:00.175Z,1.70
2018-05-27T04:33:27.665Z,1.70
2018-05-27T04:35:55.160Z,1.57
2018-05-27T04:38:22.644Z,1.50
2018-05-27T04:40:50.129Z,1.73
2018-05-27T04:43:17.656Z,1.50
2018-05-27T04:45:45.132Z,1.43
2018-05-27T04:48:12.623Z,1.60
2018-05-27T04:50:40.117Z,1.87
2018-05-27T04:53:08.382Z,1.83
2018-05-27T04:55:35.878Z,1.73
2018-05-27T04:58:04.125Z,1.30
2018-05-27T05:00:31.605Z,1.50
2018-05-27T05:02:59.878Z,1.40
2018-05-27T05:05:27.362Z,1.60
2018-05-27T05:07:54.856Z,1.50
2018-05-27T05:10:22.363Z,1.53
2018-05-27T05:12:49.878Z,1.40
2018-05-27T05:15:17.368Z,1.70
2018-05-27T05:17:44.860Z,1.57
2018-05-27T05:20:12.363Z,1.40
2018-05-27T05:22:39.858Z,1.87
2018-05-27T05:25:07.353Z,1.60
2018-05-27T05:27:34.857Z,1.67
2018-05-27T05:30:02.348Z,1.40
2018-05-27T05:32:29.867Z,1.40
2018-05-27T05:34:57.351Z,2.00
2018-05-27T05:37:24.833Z,1.43
2018-05-27T05:39:52.361Z,1.40
2018-05-27T05:42:19.869Z,1.93
2018-05-27T05:44:47.355Z,1.70
2018-05-27T05:47:14.835Z,1.63
2018-05-27T05:49:43.121Z,2.00
2018-05-27T05:52:10.608Z,1.70
2018-05-27T05:54:38.085Z,1.60
2018-05-27T05:57:05.585Z,1.63
2018-05-27T05:59:33.076Z,1.70
2018-05-27T06:02:00.572Z,1.80
2018-05-27T06:04:28.071Z,1.90
2018-05-27T06:06:55.572Z,1.70
2018-05-27T06:09:23.058Z,1.60
2018-05-27T06:11:50.570Z,1.90
2018-05-27T06:14:18.838Z,1.70
2018-05-27T06:16:46.320Z,1.80
2018-05-27T06:19:13.829Z,15.20
2018-05-27T06:21:41.320Z,21.87
2018-05-27T06:24:08.814Z,17.40
2018-05-27T06:26:37.099Z,14.40
2018-05-27T06:29:04.582Z,6.00
2018-05-27T06:31:32.073Z,3.27
2018-05-27T06:33:59.571Z,2.50
2018-05-27T06:36:27.827Z,2.93
2018-05-27T06:38:55.320Z,2.13
2018-05-27T06:41:23.607Z,2.00
2018-05-27T06:43:51.845Z,1.90
2018-05-27T06:46:19.333Z,1.93
2018-05-27T06:48:46.835Z,1.70
2018-05-27T06:51:14.344Z,1.90
2018-05-27T06:53:41.846Z,1.93
2018-05-27T06:56:09.435Z,1.60
2018-05-27T06:58:36.920Z,2.00
2018-05-27T07:01:05.165Z,1.90
2018-05-27T07:03:32.660Z,2.10
2018-05-27T07:06:00.147Z,2.07
2018-05-27T07:08:27.628Z,1.90
2018-05-27T07:10:56.821Z,1.80
2018-05-27T07:13:24.315Z,1.90
2018-05-27T07:15:51.794Z,1.80
2018-05-27T07:18:19.295Z,1.70
2018-05-27T07:20:46.775Z,1.93
2018-05-27T07:23:14.281Z,2.00
2018-05-27T07:25:41.773Z,1.87
2018-05-27T07:28:09.344Z,2.40
2018-05-27T07:30:36.804Z,2.27
2018-05-27T07:33:04.319Z,1.93
2018-05-27T07:35:31.803Z,2.13
2018-05-27T07:37:59.307Z,2.30
2018-05-27T07:40:26.789Z,2.60
2018-05-27T07:42:55.041Z,2.00
2018-05-27T07:45:22.527Z,1.93
2018-05-27T07:47:50.025Z,2.10
2018-05-27T07:50:17.524Z,2.43
2018-05-27T07:52:45.019Z,1.90
2018-05-27T07:55:13.271Z,1.97
2018-05-27T07:57:40.764Z,2.00
2018-05-27T08:00:09.013Z,1.67
2018-05-27T08:02:36.502Z,2.07
2018-05-27T08:05:04.765Z,2.10
2018-05-27T08:07:32.260Z,1.97
2018-05-27T08:10:00.526Z,2.03
2018-05-27T08:12:28.780Z,2.10
2018-05-27T08:14:56.266Z,2.13
2018-05-27T08:17:23.776Z,2.20
2018-05-27T08:19:51.335Z,2.63
2018-05-27T08:22:18.768Z,2.07
2018-05-27T08:24:47.025Z,1.90
2018-05-27T08:27:14.512Z,2.43
2018-05-27T08:29:42.807Z,2.10
2018-05-27T08:32:10.293Z,2.13
2018-05-27T08:34:37.770Z,1.77
2018-05-27T08:37:06.053Z,2.20
2018-05-27T08:39:33.536Z,1.87
2018-05-27T08:42:01.014Z,2.30
2018-05-27T08:44:29.279Z,1.70
2018-05-27T08:46:56.772Z,2.10
2018-05-27T08:49:25.024Z,1.97
2018-05-27T08:51:52.529Z,1.90
2018-05-27T08:54:20.026Z,1.90
2018-05-27T08:56:47.506Z,1.93
2018-05-27T08:59:15.002Z,2.10
2018-05-27T09:01:42.487Z,1.87
2018-05-27T09:04:09.985Z,1.70
2018-05-27T09:06:37.478Z,2.00
2018-05-27T09:09:05.758Z,1.80
2018-05-27T09:11:34.013Z,1.80
2018-05-27T09:14:01.509Z,1.70
2018-05-27T09:16:29.766Z,1.90
2018-05-27T09:18:57.271Z,1.90
2018-05-27T09:21:24.778Z,1.80
2018-05-27T09:23:52.263Z,2.30
2018-05-27T09:26:19.797Z,1.60
2018-05-27T09:28:47.281Z,1.60
2018-05-27T09:31:14.811Z,1.70
2018-05-27T09:33:42.303Z,1.93
2018-05-27T09:36:09.791Z,1.60
2018-05-27T09:38:38.060Z,1.87
2018-05-27T09:41:05.541Z,1.80
2018-05-27T09:43:33.833Z,1.70
2018-05-27T09:46:01.332Z,2.00
2018-05-27T09:48:28.833Z,2.20
2018-05-27T09:50:56.345Z,2.00
2018-05-27T09:53:23.849Z,1.90
2018-05-27T09:55:51.331Z,2.10
2018-05-27T09:58:18.850Z,2.03
2018-05-27T10:00:46.342Z,2.10
2018-05-27T10:03:13.824Z,2.27
2018-05-27T10:05:42.080Z,2.00
2018-05-27T10:08:09.592Z,2.10
2018-05-27T10:10:37.107Z,1.77
2018-05-27T10:13:04.598Z,1.87
2018-05-27T10:15:32.852Z,1.80
2018-05-27T10:18:00.356Z,2.17
2018-05-27T10:20:28.069Z,2.03
2018-05-27T10:22:55.555Z,1.80
2018-05-27T10:25:23.076Z,2.00
2018-05-27T10:27:50.589Z,2.20
2018-05-27T10:30:18.096Z,1.73
2018-05-27T10:32:45.637Z,2.00
2018-05-27T10:35:13.120Z,1.87
2018-05-27T10:37:40.592Z,1.73
2018-05-27T10:40:08.125Z,2.10
2018-05-27T10:42:36.365Z,1.97
2018-05-27T10:45:03.860Z,2.00
2018-05-27T10:47:32.116Z,2.13
2018-05-27T10:49:59.613Z,1.80
2018-05-27T10:52:27.883Z,2.00
2018-05-27T10:54:56.152Z,1.90
2018-05-27T10:57:24.418Z,2.10
2018-05-27T10:59:51.930Z,2.10
2018-05-27T11:02:19.445Z,1.80
2018-05-27T11:04:46.975Z,2.00
2018-05-27T11:07:14.467Z,2.00
2018-05-27T11:09:41.962Z,1.90
2018-05-27T11:12:10.271Z,1.93
2018-05-27T11:14:38.517Z,2.23
2018-05-27T11:17:06.780Z,2.00
2018-05-27T11:19:34.284Z,2.00
2018-05-27T11:22:01.768Z,2.23
2018-05-27T11:24:29.257Z,1.87
2018-05-27T11:26:56.758Z,2.20
2018-05-27T11:29:24.257Z,1.80
2018-05-27T11:31:51.745Z,2.30
2018-05-27T11:34:20.021Z,2.10
2018-05-27T11:36:47.508Z,2.00
2018-05-27T11:39:15.021Z,1.87
2018-05-27T11:41:42.514Z,2.13
2018-05-27T11:44:10.003Z,2.20
2018-05-27T11:46:38.273Z,2.10
2018-05-27T11:49:05.761Z,2.17
2018-05-27T11:51:34.016Z,1.93
2018-05-27T11:54:01.527Z,1.93
2018-05-27T11:56:29.014Z,2.23
2018-05-27T11:58:56.497Z,2.50
2018-05-27T12:01:24.003Z,2.03
2018-05-27T12:03:51.487Z,2.10
2018-05-27T12:06:18.994Z,2.37
2018-05-27T12:08:46.494Z,1.83
2018-05-27T12:11:13.996Z,2.03
2018-05-27T12:13:41.495Z,1.90
2018-05-27T12:16:09.744Z,1.97
2018-05-27T12:18:37.279Z,1.90
2018-05-27T12:21:04.867Z,2.10
2018-05-27T12:23:32.377Z,2.33
2018-05-27T12:26:00.673Z,1.97
2018-05-27T12:28:28.164Z,1.90
2018-05-27T12:30:55.663Z,2.03
2018-05-27T12:33:23.205Z,2.00
2018-05-27T12:35:50.697Z,1.70
2018-05-27T12:38:18.195Z,2.13
2018-05-27T12:40:45.692Z,2.10
2018-05-27T12:43:13.189Z,2.27
2018-05-27T12:45:40.673Z,2.03
2018-05-27T12:48:08.184Z,1.80
2018-05-27T12:50:35.682Z,2.23
2018-05-27T12:53:03.927Z,2.10
2018-05-27T12:55:31.423Z,2.00
2018-05-27T12:57:59.676Z,2.20
2018-05-27T13:00:27.165Z,1.87
2018-05-27T13:02:55.591Z,1.97
2018-05-27T13:05:23.076Z,2.13
2018-05-27T13:07:50.587Z,1.83
2018-05-27T13:10:18.859Z,1.80
2018-05-27T13:12:46.356Z,2.17
2018-05-27T13:15:13.850Z,2.20
2018-05-27T13:17:41.358Z,1.63
2018-05-27T13:20:09.617Z,2.00
2018-05-27T13:22:37.892Z,1.97
2018-05-27T13:25:05.403Z,2.03
2018-05-27T13:27:32.895Z,2.40
2018-05-27T13:30:00.400Z,2.40
2018-05-27T13:32:28.657Z,2.20
2018-05-27T13:34:56.140Z,1.90
2018-05-27T13:37:24.408Z,2.37
2018-05-27T13:39:51.906Z,2.40
2018-05-27T13:42:19.419Z,2.17
2018-05-27T13:44:46.929Z,2.33
2018-05-27T13:47:15.181Z,2.00
2018-05-27T13:49:42.678Z,2.40
2018-05-27T13:52:10.177Z,2.25
2018-05-27T13:54:37.669Z,2.10
2018-05-27T13:57:05.164Z,2.43
2018-05-27T13:59:33.431Z,2.00
2018-05-27T14:02:01.677Z,3.00
2018-05-27T14:04:29.165Z,2.58
2018-05-27T14:06:57.431Z,2.53
2018-05-27T14:09:24.920Z,1.97
2018-05-27T14:11:53.171Z,2.40
2018-05-27T14:14:21.535Z,2.57
2018-05-27T14:16:49.499Z,2.20
2018-05-27T14:19:17.004Z,2.30
2018-05-27T14:21:44.501Z,2.50
2018-05-27T14:24:12.056Z,2.40
2018-05-27T14:26:39.522Z,2.47
2018-05-27T14:29:07.043Z,2.50
2018-05-27T14:31:34.525Z,2.73
2018-05-27T14:34:02.804Z,2.17
2018-05-27T14:36:30.284Z,2.13
2018-05-27T14:38:58.553Z,2.30
2018-05-27T14:41:26.066Z,2.80
2018-05-27T14:43:53.568Z,2.80
2018-05-27T14:46:21.064Z,4.77
2018-05-27T14:48:48.566Z,2.53
2018-05-27T14:51:16.052Z,3.03
2018-05-27T14:53:43.541Z,4.40
2018-05-27T14:56:11.804Z,2.80
2018-05-27T14:58:39.289Z,2.70
2018-05-27T15:01:07.539Z,2.50
2018-05-27T15:03:35.035Z,2.70
2018-05-27T15:06:02.525Z,2.77
2018-05-27T15:08:30.026Z,2.70
2018-05-27T15:10:57.523Z,2.57
2018-05-27T15:13:25.017Z,2.70
2018-05-27T15:15:52.492Z,2.43
2018-05-27T15:18:19.996Z,2.70
2018-05-27T15:20:47.481Z,2.30
2018-05-27T15:23:14.986Z,2.87
2018-05-27T15:25:42.499Z,2.50
2018-05-27T15:28:10.766Z,2.40
2018-05-27T15:30:39.041Z,2.37
2018-05-27T15:33:06.549Z,2.70
2018-05-27T15:35:34.049Z,2.80
2018-05-27T15:38:01.544Z,2.90
2018-05-27T15:40:29.808Z,2.33
2018-05-27T15:42:57.365Z,2.87
2018-05-27T15:45:24.858Z,2.33
2018-05-27T15:47:53.149Z,3.33
2018-05-27T15:50:20.642Z,2.53
2018-05-27T15:52:48.137Z,2.40
2018-05-27T15:55:15.641Z,2.47
2018-05-27T15:57:43.973Z,2.65
2018-05-27T16:00:11.455Z,2.62
2018-05-27T16:02:39.745Z,2.30
2018-05-27T16:05:08.011Z,2.50
2018-05-27T16:07:35.502Z,2.40
2018-05-27T16:10:03.007Z,2.60
2018-05-27T16:12:30.509Z,3.00
2018-05-27T16:14:58.785Z,2.45
2018-05-27T16:17:27.044Z,3.05
2018-05-27T16:19:54.537Z,2.90
2018-05-27T16:22:22.804Z,2.80
2018-05-27T16:24:50.310Z,3.00
2018-05-27T16:27:17.818Z,2.83
2018-05-27T16:29:45.314Z,2.47
2018-05-27T16:32:13.581Z,2.50
2018-05-27T16:34:41.851Z,2.97
2018-05-27T16:37:09.334Z,3.03
2018-05-27T16:39:37.594Z,2.70
2018-05-27T16:42:05.079Z,2.90
2018-05-27T16:44:33.332Z,3.20
2018-05-27T16:47:00.841Z,2.60
2018-05-27T16:49:28.326Z,2.60
2018-05-27T16:51:55.828Z,3.00
2018-05-27T16:54:23.321Z,2.80
2018-05-27T16:56:50.812Z,2.93
2018-05-27T16:59:19.096Z,2.93
2018-05-27T17:01:46.589Z,2.60
2018-05-27T17:04:14.088Z,2.37
2018-05-27T17:06:42.326Z,2.90
2018-05-27T17:09:09.825Z,3.07
2018-05-27T17:11:38.093Z,3.40
2018-05-27T17:14:05.645Z,2.93
2018-05-27T17:16:33.097Z,2.97
2018-05-27T17:19:00.596Z,3.07
2018-05-27T17:21:28.866Z,2.87
2018-05-27T17:23:57.148Z,3.17
2018-05-27T17:26:24.641Z,3.27
2018-05-27T17:28:52.167Z,2.73
2018-05-27T17:31:20.421Z,2.80
2018-05-27T17:33:47.911Z,2.93
2018-05-27T17:36:15.418Z,3.20
2018-05-27T17:38:42.911Z,2.77
2018-05-27T17:41:10.396Z,3.27
2018-05-27T17:43:37.904Z,3.30
2018-05-27T17:46:05.394Z,3.30
2018-05-27T17:48:32.895Z,2.87
2018-05-27T17:51:01.149Z,3.07
2018-05-27T17:53:28.660Z,3.30
2018-05-27T17:55:56.147Z,3.30
2018-05-27T17:58:23.637Z,3.20
2018-05-27T18:00:51.900Z,3.23
2018-05-27T18:03:19.383Z,2.90
2018-05-27T18:05:46.868Z,3.50
2018-05-27T18:08:15.144Z,2.97
2018-05-27T18:10:42.636Z,3.50
2018-05-27T18:13:10.125Z,3.10
2018-05-27T18:15:37.640Z,3.63
2018-05-27T18:18:05.165Z,3.37
2018-05-27T18:20:32.649Z,3.07
2018-05-27T18:23:00.138Z,3.73
2018-05-27T18:25:28.404Z,4.93
2018-05-27T18:27:56.708Z,3.33
2018-05-27T18:30:24.202Z,3.37
2018-05-27T18:32:51.701Z,3.87
2018-05-27T18:35:19.226Z,3.23
2018-05-27T18:37:46.714Z,3.40
2018-05-27T18:40:14.235Z,3.63
2018-05-27T18:42:41.720Z,3.90
2018-05-27T18:45:09.217Z,3.70
2018-05-27T18:47:36.730Z,3.97
2018-05-27T18:50:04.252Z,3.30
2018-05-27T18:52:31.759Z,3.67
2018-05-27T18:54:59.257Z,3.63
2018-05-27T18:57:26.758Z,3.70
2018-05-27T18:59:55.038Z,4.27
2018-05-27T19:02:22.540Z,3.30
2018-05-27T19:04:50.053Z,3.20
2018-05-27T19:07:18.359Z,3.27
2018-05-27T19:09:45.885Z,3.30
2018-05-27T19:12:13.418Z,3.50
2018-05-27T19:14:40.903Z,2.97
2018-05-27T19:17:08.393Z,3.30
2018-05-27T19:19:36.668Z,3.23
2018-05-27T19:22:04.155Z,3.33
2018-05-27T19:24:31.664Z,3.20
2018-05-27T19:26:59.149Z,3.30
2018-05-27T19:29:26.631Z,3.20
2018-05-27T19:31:54.925Z,2.90
2018-05-27T19:34:22.415Z,3.40
2018-05-27T19:36:49.892Z,3.07
2018-05-27T19:39:18.172Z,3.50
2018-05-27T19:41:45.661Z,3.00
2018-05-27T19:44:13.140Z,3.27
2018-05-27T19:46:41.407Z,3.27
2018-05-27T19:49:08.912Z,3.17
2018-05-27T19:51:36.414Z,3.00
2018-05-27T19:54:03.889Z,3.00
2018-05-27T19:56:31.386Z,2.90
2018-05-27T19:58:58.886Z,2.90
2018-05-27T20:01:26.366Z,2.87
2018-05-27T20:03:53.856Z,3.20
2018-05-27T20:06:21.377Z,3.07
2018-05-27T20:08:48.892Z,3.30
2018-05-27T20:11:17.139Z,3.50
2018-05-27T20:13:44.668Z,3.40
2018-05-27T20:16:12.152Z,3.20
2018-05-27T20:18:39.635Z,3.10
2018-05-27T20:21:07.138Z,3.37
2018-05-27T20:23:34.672Z,3.43
2018-05-27T20:26:02.154Z,3.33
2018-05-27T20:28:30.418Z,3.30
2018-05-27T20:30:57.898Z,3.43
2018-05-27T20:33:26.158Z,3.40
2018-05-27T20:35:53.718Z,3.20
2018-05-27T20:38:21.211Z,3.20
2018-05-27T20:40:49.452Z,3.63
2018-05-27T20:43:16.955Z,3.30
2018-05-27T20:45:44.440Z,3.10
2018-05-27T20:48:11.916Z,2.90
2018-05-27T20:50:39.410Z,3.10
2018-05-27T20:53:06.891Z,3.03
2018-05-27T20:55:35.138Z,3.33
2018-05-27T20:58:02.651Z,3.33
2018-05-27T21:00:30.125Z,3.50
2018-05-27T21:02:57.609Z,3.07
2018-05-27T21:05:25.107Z,3.40
2018-05-27T21:07:52.595Z,3.10
2018-05-27T21:10:20.085Z,3.33
2018-05-27T21:12:47.577Z,2.83
2018-05-27T21:15:15.053Z,3.33
2018-05-27T21:17:42.551Z,2.83
2018-05-27T21:20:10.033Z,3.17
2018-05-27T21:22:37.554Z,3.23
2018-05-27T21:25:05.034Z,3.10
2018-05-27T21:27:33.292Z,3.37
2018-05-27T21:30:00.780Z,2.97
2018-05-27T21:32:29.059Z,3.00
2018-05-27T21:34:57.314Z,2.90
2018-05-27T21:37:24.809Z,2.00
2018-05-27T21:39:53.059Z,3.30
2018-05-27T21:42:20.543Z,1.83
2018-05-27T21:44:48.826Z,1.93
2018-05-27T21:47:17.077Z,1.53
2018-05-27T21:49:44.561Z,2.33
2018-05-27T21:52:12.816Z,2.50
2018-05-27T21:54:40.312Z,2.83
2018-05-27T21:57:08.577Z,2.20
2018-05-27T21:59:36.096Z,2.57
2018-05-27T22:02:03.585Z,2.40
2018-05-27T22:04:31.069Z,2.37
2018-05-27T22:06:59.347Z,2.20
2018-05-27T22:09:26.828Z,2.30
2018-05-27T22:11:55.081Z,2.13
2018-05-27T22:14:22.573Z,2.40
2018-05-27T22:16:50.825Z,2.27
2018-05-27T22:19:18.304Z,2.50
2018-05-27T22:21:46.597Z,2.30
2018-05-27T22:24:14.836Z,2.47
2018-05-27T22:26:42.316Z,2.37
2018-05-27T22:29:09.808Z,2.20
2018-05-27T22:31:37.291Z,2.03
2018-05-27T22:34:04.784Z,2.10
2018-05-27T22:36:32.285Z,1.90
2018-05-27T22:39:00.527Z,1.70
2018-05-27T22:41:28.024Z,1.30
2018-05-27T22:43:56.386Z,1.90
2018-05-27T22:46:23.866Z,1.30
2018-05-27T22:48:52.098Z,1.10
2018-05-27T22:51:19.623Z,1.27
2018-05-27T22:53:47.103Z,1.20
2018-05-27T22:56:14.585Z,1.27
2018-05-27T22:58:42.085Z,1.40
2018-05-27T23:01:09.626Z,1.43
2018-05-27T23:03:37.083Z,1.30
2018-05-27T23:06:04.585Z,1.37
2018-05-27T23:08:32.839Z,1.43
2018-05-27T23:11:00.347Z,1.40
2018-05-27T23:13:28.607Z,1.50
2018-05-27T23:15:56.097Z,1.40
2018-05-27T23:18:23.588Z,1.40
2018-05-27T23:20:51.068Z,1.60
2018-05-27T23:23:19.343Z,1.73
2018-05-27T23:25:46.841Z,1.30
2018-05-27T23:28:15.101Z,1.10
2018-05-27T23:30:42.588Z,1.33
2018-05-27T23:33:10.850Z,1.70
2018-05-27T23:35:38.352Z,1.27
2018-05-27T23:38:05.835Z,1.10
2018-05-27T23:40:33.345Z,1.50
2018-05-27T23:43:00.830Z,1.50
2018-05-27T23:45:29.084Z,1.27
2018-05-27T23:47:56.584Z,1.40
2018-05-27T23:50:24.068Z,1.30
2018-05-27T23:52:51.558Z,1.50
2018-05-27T23:55:19.044Z,1.33
2018-05-27T23:57:46.540Z,1.53
